This is the latest recevied weather packets stored in our database for station/object K0SDS. If no packets are shown the sender has not sent any weather packets the latest 10 day(s).
| Time | Temp. | Humidity | Pressure | Rain* | Wind** | Luminosity | Snow |
|---|---|---|---|---|---|---|---|
| 1778175981 | 18.33° C | 53% | 1013.7 hPa | 0 mm | - | 758 W/m² | - |
| 1778175679 | 17.78° C | 55% | 1013.9 hPa | 0 mm | - | 778 W/m² | - |
| 1778175376 | 17.78° C | 52% | 1013.9 hPa | 0 mm | - | 281 W/m² | - |
| 1778175073 | 17.78° C | 53% | 1014.3 hPa | 0 mm | - | 802 W/m² | - |
| 1778174768 | 17.78° C | 53% | 1014.1 hPa | 0 mm | - | 709 W/m² | - |
| 1778174466 | 17.78° C | 54% | 1014.4 hPa | 0 mm | - | 747 W/m² | - |
| 1778174161 | 17.78° C | 52% | 1014.3 hPa | 0 mm | - | 814 W/m² | - |
| 1778173858 | 17.78° C | 53% | 1014.3 hPa | 0 mm | - | 435 W/m² | - |
| 1778173555 | 17.22° C | 54% | 1014.5 hPa | 0 mm | - | 797 W/m² | - |
| 1778173252 | 17.78° C | 53% | 1014.6 hPa | 0 mm | - | 781 W/m² | - |
| 1778172947 | 16.67° C | 54% | 1014.4 hPa | 0 mm | - | 846 W/m² | - |
| 1778172644 | 17.22° C | 53% | 1014.5 hPa | 0 mm | - | 809 W/m² | - |
| 1778172340 | 17.78° C | 53% | 1014.7 hPa | 0 mm | - | 845 W/m² | - |
| 1778172038 | 17.22° C | 55% | 1014.9 hPa | 0 mm | - | 902 W/m² | - |
| 1778171735 | 16.67° C | 58% | 1014.9 hPa | 0 mm | - | 953 W/m² | - |
| 1778171433 | 17.22° C | 55% | 1014.9 hPa | 0 mm | - | 839 W/m² | - |
| 1778171127 | 16.67° C | 56% | 1015 hPa | 0 mm | - | 851 W/m² | - |
| 1778170824 | 16.67° C | 56% | 1015 hPa | 0 mm | - | 860 W/m² | - |
| 1778170521 | 16.67° C | 55% | 1015.4 hPa | 0 mm | - | 840 W/m² | - |
| 1778170218 | 16.11° C | 55% | 1015.4 hPa | 0 mm | - | 810 W/m² | - |
| 1778169914 | 16.11° C | 55% | 1015.2 hPa | 0 mm | - | 789 W/m² | - |
| 1778169611 | 16.11° C | 57% | 1015.3 hPa | 0 mm | - | 804 W/m² | - |
| 1778169305 | 16.11° C | 58% | 1015.4 hPa | 0 mm | - | 795 W/m² | - |
| 1778169003 | 16.11° C | 57% | 1015.2 hPa | 0 mm | - | 761 W/m² | - |
| 1778168699 | 15.56° C | 61% | 1015.3 hPa | 0 mm | - | 718 W/m² | - |
* Rain latest hour (hover to see other rain measurements)
** Current wind speed in m/s (hover to see current wind gust speed)